Time;durP1;ratioP1;P1;durP2;ratioP2;P2;SDS_P1;SDS_P2;PMS_P1;PMS_P2;Temp;Humidity;BMP_temperature;BMP_pressure;BME280_temperature;BME280_humidity;BME280_pressure;Samples;Min_cycle;Max_cycle;Signal;HPM_P1;HPM_P2
2022/11/27 00:01:33;;;;;;;18.58;5.55;;;;;;;6.17;91.66;102468.31;5131955;27;20027;-62
2022/11/27 00:03:59;;;;;;;14.27;4.93;;;;;;;6.09;92.04;102453.84;5134080;27;20027;-62
2022/11/27 00:06:27;;;;;;;19.45;5.57;;;;;;;6.05;92.00;102450.97;5134067;27;20027;-64
2022/11/27 00:09:05;;;;;;;16.13;5.35;;;;;;;6.01;92.47;102450.81;5132576;27;20016;-62
2022/11/27 00:11:31;;;;;;;14.50;4.93;;;;;;;5.97;92.44;102458.44;5133789;27;20035;-61
2022/11/27 00:13:57;;;;;;;15.00;4.60;;;;;;;5.96;91.97;102448.75;5133849;27;20103;-62
2022/11/27 00:16:24;;;;;;;21.10;5.82;;;;;;;5.93;93.08;102452.09;5133992;27;20024;-62
2022/11/27 00:18:50;;;;;;;16.48;5.38;;;;;;;5.91;92.89;102450.16;5132383;28;20060;-61
2022/11/27 00:21:28;;;;;;;15.98;5.15;;;;;;;5.87;92.88;102442.97;5133386;27;20023;-63
2022/11/27 00:23:55;;;;;;;13.88;4.80;;;;;;;5.85;92.81;102442.88;5132773;27;20072;-62
2022/11/27 00:26:21;;;;;;;16.90;5.28;;;;;;;5.84;93.26;102448.03;5132209;27;20027;-62
2022/11/27 00:28:46;;;;;;;17.42;5.00;;;;;;;5.78;92.76;102440.72;5132317;27;20033;-62
2022/11/27 00:31:21;;;;;;;13.27;5.60;;;;;;;5.74;93.02;102436.16;5132203;27;20106;-62
2022/11/27 00:33:47;;;;;;;17.25;5.28;;;;;;;5.69;92.95;102435.84;5131373;28;20062;-62
2022/11/27 00:36:12;;;;;;;15.93;5.40;;;;;;;5.69;93.25;102421.84;5132596;27;20047;-62
2022/11/27 00:38:39;;;;;;;14.25;4.88;;;;;;;5.68;92.89;102414.81;5131602;28;20114;-62
2022/11/27 00:41:09;;;;;;;15.10;5.00;;;;;;;5.66;92.84;102417.34;5133658;27;20473;-62
2022/11/27 00:43:36;;;;;;;15.95;4.88;;;;;;;5.64;92.85;102418.97;5133597;27;20106;-61
2022/11/27 00:46:02;;;;;;;15.30;4.63;;;;;;;5.59;92.74;102417.81;5132577;28;20023;-62
2022/11/27 00:48:28;;;;;;;14.55;4.80;;;;;;;5.53;92.96;102420.09;5133472;27;20019;-62
2022/11/27 00:51:01;;;;;;;13.75;4.85;;;;;;;5.44;93.69;102420.47;5133564;27;20481;-62
2022/11/27 00:53:27;;;;;;;16.48;5.07;;;;;;;5.36;94.07;102415.63;5133266;28;20051;-62
2022/11/27 00:55:56;;;;;;;19.98;5.32;;;;;;;5.29;94.39;102416.97;5133520;27;20541;-62
2022/11/27 00:58:23;;;;;;;14.40;4.63;;;;;;;5.26;94.66;102416.78;5136915;27;20038;-62
2022/11/27 01:01:04;;;;;;;11.52;4.43;;;;;;;5.20;95.15;102413.84;5137572;27;20019;-62
2022/11/27 01:03:31;;;;;;;16.80;4.95;;;;;;;5.19;94.50;102398.94;5137367;27;20031;-62
2022/11/27 01:06:02;;;;;;;15.70;5.43;;;;;;;5.21;94.45;102392.03;5137527;27;20373;-62
2022/11/27 01:08:27;;;;;;;14.88;5.55;;;;;;;5.18;94.63;102390.16;5137619;27;20019;-62
2022/11/27 01:10:55;;;;;;;16.83;5.13;;;;;;;5.24;93.98;102393.13;5137157;27;20423;-63
2022/11/27 01:13:36;;;;;;;16.13;5.30;;;;;;;5.25;94.59;102391.41;5137064;27;20023;-62
2022/11/27 01:16:06;;;;;;;19.80;5.55;;;;;;;5.24;93.93;102392.22;5137210;27;20027;-62
2022/11/27 01:18:32;;;;;;;16.75;5.60;;;;;;;5.20;93.55;102383.28;5137073;27;20038;-62
2022/11/27 01:20:58;;;;;;;22.58;5.82;;;;;;;5.18;93.68;102378.75;5137085;27;20027;-62
2022/11/27 01:23:23;;;;;;;22.65;5.40;;;;;;;5.13;93.94;102373.25;5135664;27;20042;-62
2022/11/27 01:25:51;;;;;;;15.57;5.93;;;;;;;5.06;93.97;102381.59;5137170;27;20031;-62
2022/11/27 01:28:17;;;;;;;16.88;5.53;;;;;;;5.06;93.66;102380.69;5137157;27;20035;-64
2022/11/27 01:30:42;;;;;;;20.70;5.80;;;;;;;5.04;94.45;102385.84;5136826;27;20172;-62
2022/11/27 01:33:07;;;;;;;17.45;5.57;;;;;;;5.02;94.45;102390.09;5136743;27;20020;-62
2022/11/27 01:35:33;;;;;;;16.85;5.93;;;;;;;4.96;95.32;102379.25;5136683;27;20032;-62
2022/11/27 01:37:58;;;;;;;15.77;5.68;;;;;;;4.91;95.86;102370.22;5136707;27;20054;-62
2022/11/27 01:40:25;;;;;;;19.10;5.60;;;;;;;4.92;95.64;102359.81;5136776;27;20034;-62
2022/11/27 01:42:50;;;;;;;15.85;5.88;;;;;;;4.93;95.33;102350.28;5136750;27;20027;-61
2022/11/27 01:45:18;;;;;;;18.50;6.10;;;;;;;4.95;95.26;102344.28;5136591;27;20023;-62
2022/11/27 01:47:50;;;;;;;16.50;6.40;;;;;;;4.95;95.67;102357.38;5136606;27;20047;-61
2022/11/27 01:50:20;;;;;;;17.52;6.13;;;;;;;4.95;95.77;102346.00;5136462;27;20087;-62
2022/11/27 01:52:50;;;;;;;21.15;6.20;;;;;;;4.91;95.90;102351.88;5136133;27;20486;-61
2022/11/27 01:55:22;;;;;;;18.25;5.55;;;;;;;4.96;95.42;102351.31;5136371;27;20050;-62
2022/11/27 01:57:56;;;;;;;20.35;5.88;;;;;;;4.99;95.51;102345.38;5136458;27;20054;-62
2022/11/27 02:00:23;;;;;;;16.13;5.90;;;;;;;4.93;96.07;102324.09;5136623;27;20068;-62
2022/11/27 02:02:48;;;;;;;16.85;6.65;;;;;;;4.96;95.80;102326.84;5136224;27;20019;-62
2022/11/27 02:05:18;;;;;;;15.65;6.07;;;;;;;5.00;95.64;102308.78;5136123;27;20096;-62
2022/11/27 02:07:44;;;;;;;12.27;5.40;;;;;;;5.05;95.16;102302.91;5136029;27;20024;-62
2022/11/27 02:10:10;;;;;;;18.05;5.45;;;;;;;5.09;94.62;102295.28;5136072;27;20494;-61
2022/11/27 02:12:58;;;;;;;15.82;5.72;;;;;;;5.07;94.12;102294.31;5135928;27;20023;-63
2022/11/27 02:15:36;;;;;;;15.85;5.15;;;;;;;5.01;94.37;102287.03;5136069;27;20495;-62
2022/11/27 02:18:19;;;;;;;16.42;5.60;;;;;;;5.02;94.05;102285.31;5135909;27;20023;-62
2022/11/27 02:20:57;;;;;;;13.40;5.60;;;;;;;5.07;93.73;102278.59;5135834;27;20425;-62
2022/11/27 02:24:01;;;;;;;12.43;5.68;;;;;;;5.00;93.59;102279.06;5135891;27;20479;-62
2022/11/27 02:26:43;;;;;;;14.80;6.22;;;;;;;4.91;93.47;102279.44;5135424;27;20054;-62
2022/11/27 02:29:11;;;;;;;17.77;5.68;;;;;;;4.86;93.31;102270.44;5135703;27;20026;-62
2022/11/27 02:31:50;;;;;;;14.88;5.13;;;;;;;4.88;93.25;102265.28;5135464;27;20087;-62
2022/11/27 02:34:22;;;;;;;14.23;5.30;;;;;;;4.83;93.10;102265.00;5134059;27;20126;-63
2022/11/27 02:36:59;;;;;;;14.10;5.63;;;;;;;4.80;93.61;102272.72;5135471;27;20042;-62
2022/11/27 02:39:32;;;;;;;14.45;5.68;;;;;;;4.76;93.04;102261.16;5135801;27;20096;-62
2022/11/27 02:42:13;;;;;;;11.73;5.40;;;;;;;4.77;93.22;102264.69;5135613;27;20015;-62
2022/11/27 02:44:45;;;;;;;12.20;5.38;;;;;;;4.75;93.27;102264.59;5135433;27;20051;-62
2022/11/27 02:47:13;;;;;;;13.02;5.18;;;;;;;4.71;93.49;102254.78;5135231;27;20031;-62
2022/11/27 02:49:41;;;;;;;17.65;5.35;;;;;;;4.71;93.57;102259.06;5135092;27;20102;-62
2022/11/27 02:52:10;;;;;;;12.05;5.57;;;;;;;4.70;93.40;102250.31;5134815;27;20026;-62
2022/11/27 02:54:40;;;;;;;12.55;5.68;;;;;;;4.69;93.30;102253.75;5135420;27;20047;-62
2022/11/27 02:57:07;;;;;;;15.98;5.00;;;;;;;4.70;93.36;102255.56;5135323;27;20076;-63
2022/11/27 02:59:33;;;;;;;12.85;5.07;;;;;;;4.69;92.63;102260.72;5134927;27;20066;-62
2022/11/27 03:02:09;;;;;;;16.02;5.28;;;;;;;4.71;92.99;102260.00;5135000;27;20059;-62
2022/11/27 03:04:43;;;;;;;13.02;5.15;;;;;;;4.73;92.41;102267.94;5135311;27;20027;-63
2022/11/27 03:07:17;;;;;;;14.20;5.53;;;;;;;4.71;92.14;102251.22;5134923;27;20383;-62
2022/11/27 03:09:46;;;;;;;17.58;6.15;;;;;;;4.72;92.98;102279.22;5135056;27;20034;-62
2022/11/27 03:12:13;;;;;;;14.93;5.15;;;;;;;4.74;92.72;102285.44;5134772;27;20057;-62
2022/11/27 03:14:41;;;;;;;14.75;5.20;;;;;;;4.71;92.46;102267.84;5116308;27;20023;-62
2022/11/27 03:17:21;;;;;;;16.58;5.70;;;;;;;4.79;92.44;102270.88;5135042;27;20023;-62
2022/11/27 03:20:02;;;;;;;12.77;5.72;;;;;;;4.80;92.57;102257.00;5134412;27;20024;-62
2022/11/27 03:22:27;;;;;;;14.43;5.03;;;;;;;4.81;92.55;102258.81;5134719;27;20030;-62
2022/11/27 03:24:53;;;;;;;17.45;4.85;;;;;;;4.82;92.06;102251.84;5134572;27;20027;-62
2022/11/27 03:27:25;;;;;;;11.48;4.60;;;;;;;4.88;91.95;102254.78;5134529;27;20061;-62
2022/11/27 03:29:56;;;;;;;10.98;5.07;;;;;;;4.82;92.04;102250.13;5134569;27;20425;-62
2022/11/27 03:32:24;;;;;;;18.48;5.45;;;;;;;4.88;91.33;102241.69;5134378;27;20391;-62
2022/11/27 03:34:51;;;;;;;9.70;4.05;;;;;;;4.88;91.89;102254.78;5116424;27;20027;-62
2022/11/27 03:37:16;;;;;;;16.02;5.15;;;;;;;4.85;92.04;102255.53;5134417;27;20384;-62
2022/11/27 03:39:42;;;;;;;14.13;5.68;;;;;;;4.84;92.39;102251.13;5134322;27;20023;-62
2022/11/27 03:42:29;;;;;;;11.75;5.20;;;;;;;4.87;91.54;102251.28;5134381;27;20055;-62
2022/11/27 03:45:15;;;;;;;12.20;5.03;;;;;;;4.88;91.76;102240.00;5134320;27;20029;-62
2022/11/27 03:47:49;;;;;;;12.32;4.93;;;;;;;4.88;91.66;102236.47;5134127;27;20051;-62
2022/11/27 03:50:20;;;;;;;14.85;4.88;;;;;;;4.88;92.08;102229.53;5134385;27;20071;-61
2022/11/27 03:53:07;;;;;;;13.65;4.80;;;;;;;4.89;91.76;102226.09;5134042;27;20039;-62
2022/11/27 03:56:06;;;;;;;12.45;4.80;;;;;;;4.89;91.45;102222.56;5134225;27;20027;-62
2022/11/27 03:58:39;;;;;;;9.82;5.05;;;;;;;4.89;91.25;102230.44;5133995;27;20050;-62
2022/11/27 04:01:09;;;;;;;9.32;4.70;;;;;;;4.91;91.67;102223.53;5133987;27;20521;-62
2022/11/27 04:03:35;;;;;;;9.82;4.75;;;;;;;4.91;90.89;102226.16;5133942;27;20362;-62
2022/11/27 04:06:01;;;;;;;11.90;5.03;;;;;;;4.90;90.77;102224.38;5133875;27;20491;-62
2022/11/27 04:08:27;;;;;;;11.02;5.05;;;;;;;4.88;91.36;102223.38;5133887;27;20033;-63
2022/11/27 04:10:52;;;;;;;11.02;5.20;;;;;;;4.89;91.64;102235.66;5133897;27;20027;-62
2022/11/27 04:13:18;;;;;;;12.45;4.68;;;;;;;4.90;91.19;102233.13;5133807;27;20154;-62
2022/11/27 04:15:43;;;;;;;10.35;4.80;;;;;;;4.90;91.27;102227.00;5133676;27;20027;-61
2022/11/27 04:18:09;;;;;;;17.17;5.20;;;;;;;4.89;91.33;102235.66;5133585;28;20429;-62
2022/11/27 04:20:34;;;;;;;10.80;4.93;;;;;;;4.89;91.11;102236.56;5133749;28;20058;-62
2022/11/27 04:22:59;;;;;;;14.45;5.03;;;;;;;4.93;91.27;102248.13;5133739;28;20582;-61
2022/11/27 04:25:25;;;;;;;15.63;4.60;;;;;;;4.93;90.75;102245.50;5133705;28;20071;-62
2022/11/27 04:27:50;;;;;;;13.88;4.93;;;;;;;4.94;90.52;102248.19;5133552;28;20035;-62
2022/11/27 04:30:16;;;;;;;11.43;4.50;;;;;;;4.97;90.42;102247.47;5133591;28;20059;-62
2022/11/27 04:32:41;;;;;;;12.82;4.32;;;;;;;4.97;90.75;102244.88;5137894;27;20033;-60
2022/11/27 04:35:08;;;;;;;13.95;4.68;;;;;;;4.98;90.22;102238.81;5137982;27;20388;-62
2022/11/27 04:37:33;;;;;;;9.90;4.45;;;;;;;4.97;90.52;102237.91;5137828;27;20480;-62
2022/11/27 04:39:59;;;;;;;11.23;4.35;;;;;;;4.95;90.29;102229.03;5119416;27;20030;-61
2022/11/27 04:42:24;;;;;;;10.27;4.13;;;;;;;4.95;90.60;102233.38;5137673;27;20026;-62
2022/11/27 04:44:49;;;;;;;16.35;4.63;;;;;;;4.94;90.65;102237.72;5137619;27;20023;-62
2022/11/27 04:47:15;;;;;;;12.43;4.70;;;;;;;4.94;90.31;102236.81;5137892;27;20457;-61
2022/11/27 04:49:40;;;;;;;9.48;3.97;;;;;;;4.95;90.37;102234.28;5137495;27;20034;-61
2022/11/27 04:52:06;;;;;;;16.40;4.53;;;;;;;4.97;90.23;102231.75;5137144;27;20027;-61
2022/11/27 04:54:31;;;;;;;11.23;4.10;;;;;;;4.99;90.16;102227.50;5137454;27;20031;-62
2022/11/27 04:56:56;;;;;;;12.40;4.10;;;;;;;5.00;90.12;102216.19;5137475;27;20031;-61
2022/11/27 04:59:22;;;;;;;12.15;4.15;;;;;;;5.00;89.67;102211.84;5137465;27;20023;-62
2022/11/27 05:01:47;;;;;;;9.77;3.85;;;;;;;4.99;89.59;102210.06;5137714;27;20027;-63
2022/11/27 05:04:13;;;;;;;10.20;4.40;;;;;;;4.96;89.72;102204.66;5137502;27;20528;-63
2022/11/27 05:06:38;;;;;;;7.32;3.50;;;;;;;4.96;89.58;102201.13;5137245;27;20027;-62
2022/11/27 05:09:03;;;;;;;10.13;3.95;;;;;;;4.97;89.51;102202.94;5137492;27;20031;-62
2022/11/27 05:11:30;;;;;;;6.38;3.67;;;;;;;4.97;89.81;102198.63;5137168;27;20023;-62
2022/11/27 05:14:15;;;;;;;10.02;3.65;;;;;;;4.99;88.97;102186.47;5137061;27;20032;-61
2022/11/27 05:16:43;;;;;;;11.13;4.20;;;;;;;5.02;89.39;102188.38;5137417;27;20054;-62
2022/11/27 05:19:10;;;;;;;11.07;3.45;;;;;;;5.01;88.89;102187.50;5137091;27;20413;-61
2022/11/27 05:21:35;;;;;;;12.23;3.75;;;;;;;5.01;89.11;102186.56;5137244;27;20031;-62
2022/11/27 05:24:01;;;;;;;11.23;3.97;;;;;;;4.97;88.96;102175.03;5136938;27;20500;-62
2022/11/27 05:26:27;;;;;;;10.13;4.10;;;;;;;5.02;88.97;102175.28;5137146;27;20045;-61
2022/11/27 05:28:52;;;;;;;10.35;4.05;;;;;;;5.03;89.34;102183.22;5136885;27;20026;-61
2022/11/27 05:31:17;;;;;;;9.38;4.25;;;;;;;5.04;88.75;102171.00;5136607;27;20027;-62
2022/11/27 05:33:43;;;;;;;8.02;3.97;;;;;;;5.04;89.02;102171.00;5136703;27;20071;-62
2022/11/27 05:36:08;;;;;;;10.27;4.13;;;;;;;5.05;88.52;102175.44;5136675;27;20031;-62
2022/11/27 05:38:34;;;;;;;10.30;4.15;;;;;;;5.05;89.08;102159.72;5136922;27;20063;-62
2022/11/27 05:40:59;;;;;;;10.63;3.80;;;;;;;5.08;88.88;102164.22;5136651;27;20023;-63
2022/11/27 05:43:24;;;;;;;10.40;3.97;;;;;;;5.08;89.00;102164.22;5135492;27;20496;-62
2022/11/27 05:45:50;;;;;;;11.55;4.25;;;;;;;5.08;88.86;102154.66;5136736;27;20384;-62
2022/11/27 05:48:15;;;;;;;12.02;3.78;;;;;;;5.09;89.02;102163.41;5136525;27;20063;-61
2022/11/27 05:50:40;;;;;;;12.02;4.20;;;;;;;5.10;89.00;102163.50;5136498;27;20032;-62
2022/11/27 05:53:06;;;;;;;9.45;4.10;;;;;;;5.13;88.59;102160.13;5136230;27;20122;-62
2022/11/27 05:55:31;;;;;;;11.02;3.83;;;;;;;5.14;88.48;102152.38;5136402;27;20477;-62
2022/11/27 05:57:56;;;;;;;16.33;4.15;;;;;;;5.10;88.67;102145.16;5136279;27;20026;-62
2022/11/27 06:00:22;;;;;;;7.85;3.72;;;;;;;5.13;88.51;102140.06;5136544;27;20019;-61
2022/11/27 06:02:48;;;;;;;11.88;4.40;;;;;;;5.11;88.88;102128.63;5136426;27;20031;-62
2022/11/27 06:05:13;;;;;;;8.52;3.65;;;;;;;5.13;88.96;102123.44;5136242;27;20031;-61
2022/11/27 06:07:39;;;;;;;9.07;4.30;;;;;;;5.07;89.02;102118.78;5136102;27;20024;-62
2022/11/27 06:10:05;;;;;;;11.13;4.13;;;;;;;5.12;88.86;102134.75;5134836;27;20069;-62
2022/11/27 06:12:31;;;;;;;11.25;4.25;;;;;;;5.12;89.31;102132.13;5136247;27;20050;-62
2022/11/27 06:14:57;;;;;;;12.55;4.47;;;;;;;5.12;89.10;102121.66;5135742;27;20501;-62
2022/11/27 06:17:22;;;;;;;12.70;3.85;;;;;;;5.13;89.39;102126.06;5135932;27;20023;-61
2022/11/27 06:19:48;;;;;;;10.18;3.83;;;;;;;5.14;89.03;102126.19;5136043;27;20114;-62
2022/11/27 06:22:13;;;;;;;8.98;4.22;;;;;;;5.14;89.07;102128.78;5136096;27;20476;-62
2022/11/27 06:24:38;;;;;;;7.82;3.65;;;;;;;5.18;88.94;102121.97;5136065;27;20425;-62
2022/11/27 06:27:04;;;;;;;11.95;4.63;;;;;;;5.19;88.80;102113.31;5135684;27;20042;-61
2022/11/27 06:29:29;;;;;;;8.75;4.07;;;;;;;5.20;89.08;102116.00;5135990;27;20121;-61
2022/11/27 06:31:54;;;;;;;9.57;3.70;;;;;;;5.24;89.01;102114.44;5134493;27;20050;-62
2022/11/27 06:34:20;;;;;;;9.68;4.00;;;;;;;5.26;88.71;102112.78;5135682;27;20106;-61
2022/11/27 06:36:45;;;;;;;8.93;4.00;;;;;;;5.27;88.99;102114.63;5135576;27;20050;-62
2022/11/27 06:39:11;;;;;;;9.55;3.97;;;;;;;5.30;89.28;102124.34;5135538;27;20523;-62
2022/11/27 06:41:36;;;;;;;10.10;4.00;;;;;;;5.32;89.02;102123.63;5135751;27;20031;-62
2022/11/27 06:44:03;;;;;;;10.52;3.72;;;;;;;5.32;88.95;102122.72;5135325;27;20329;-62
2022/11/27 06:46:29;;;;;;;9.15;4.60;;;;;;;5.33;88.95;102122.78;5135339;27;20492;-61
2022/11/27 06:48:56;;;;;;;8.95;4.25;;;;;;;5.34;88.63;102124.59;5135181;27;20029;-63
2022/11/27 06:51:24;;;;;;;12.82;4.95;;;;;;;5.35;89.08;102125.47;5135577;27;20023;-61
2022/11/27 06:53:50;;;;;;;8.25;3.80;;;;;;;5.33;89.18;102119.28;5134659;27;20126;-62
2022/11/27 06:56:18;;;;;;;9.75;4.05;;;;;;;5.32;89.37;102121.00;5134625;27;20038;-62
2022/11/27 06:58:44;;;;;;;10.60;4.25;;;;;;;5.31;89.95;102111.34;5135423;27;20030;-62
2022/11/27 07:01:13;;;;;;;14.70;5.93;;;;;;;5.28;90.35;102105.94;5135398;27;20023;-62
2022/11/27 07:03:39;;;;;;;11.18;4.43;;;;;;;5.29;90.92;102105.09;5135002;27;20476;-62
2022/11/27 07:06:06;;;;;;;11.48;4.22;;;;;;;5.27;90.96;102098.91;5134900;27;20080;-62
2022/11/27 07:08:33;;;;;;;9.93;4.13;;;;;;;5.29;90.89;102105.09;5134997;27;20484;-62
2022/11/27 07:11:03;;;;;;;11.80;4.20;;;;;;;5.27;91.55;102102.41;5134907;27;20034;-62
2022/11/27 07:13:30;;;;;;;13.60;4.10;;;;;;;5.26;91.20;102095.34;5134814;27;20068;-63
2022/11/27 07:15:59;;;;;;;7.90;3.78;;;;;;;5.27;91.70;102088.41;5135117;27;20062;-62
2022/11/27 07:18:25;;;;;;;8.63;3.95;;;;;;;5.26;92.06;102084.88;5134949;27;20135;-63
2022/11/27 07:20:53;;;;;;;12.50;4.63;;;;;;;5.25;92.50;102071.69;5134734;27;20063;-63
2022/11/27 07:23:18;;;;;;;9.13;4.07;;;;;;;5.26;92.31;102074.38;5133308;27;20027;-63
2022/11/27 07:25:44;;;;;;;12.07;4.47;;;;;;;5.26;92.11;102073.50;5134635;27;20067;-64
2022/11/27 07:28:09;;;;;;;11.10;4.03;;;;;;;5.25;92.55;102058.59;5133298;27;20039;-64
2022/11/27 07:30:34;;;;;;;9.57;4.45;;;;;;;5.26;92.37;102056.03;5134476;27;20121;-65
2022/11/27 07:33:00;;;;;;;10.35;4.25;;;;;;;5.26;93.02;102069.16;5133070;27;20031;-66
2022/11/27 07:35:25;;;;;;;11.00;4.70;;;;;;;5.26;92.98;102063.91;5134632;27;20027;-64
2022/11/27 07:37:50;;;;;;;9.48;4.40;;;;;;;5.27;93.08;102056.97;5134455;27;20034;-65
2022/11/27 07:40:17;;;;;;;13.10;4.78;;;;;;;5.28;93.05;102054.41;5134415;27;20106;-65
2022/11/27 07:42:43;;;;;;;12.63;4.57;;;;;;;5.24;93.29;102052.47;5134432;27;20555;-64
2022/11/27 07:45:09;;;;;;;12.82;4.97;;;;;;;5.23;93.49;102053.28;5134542;27;20041;-65
2022/11/27 07:47:35;;;;;;;12.05;5.00;;;;;;;5.25;93.52;102049.00;5134392;27;20051;-66
2022/11/27 07:50:00;;;;;;;10.68;5.20;;;;;;;5.25;93.37;102050.72;5134197;27;20501;-64
2022/11/27 07:52:26;;;;;;;10.23;5.35;;;;;;;5.22;94.26;102048.88;5134105;27;20054;-65
2022/11/27 07:54:52;;;;;;;9.88;5.35;;;;;;;5.23;94.23;102042.81;5134234;27;20031;-65
2022/11/27 07:57:17;;;;;;;9.20;4.85;;;;;;;5.21;94.40;102038.28;5134136;27;20484;-66
2022/11/27 07:59:43;;;;;;;13.77;5.55;;;;;;;5.19;94.56;102025.13;5132829;27;20027;-65
2022/11/27 08:02:12;;;;;;;12.20;5.32;;;;;;;5.14;94.26;102008.28;5133966;27;20447;-65
2022/11/27 08:04:37;;;;;;;11.07;5.50;;;;;;;5.17;95.17;102020.63;5134191;27;20023;-65
2022/11/27 08:07:03;;;;;;;11.73;6.18;;;;;;;5.20;95.40;102012.91;5133851;27;20594;-65
2022/11/27 08:09:29;;;;;;;14.32;5.90;;;;;;;5.19;95.72;102004.16;5134054;27;20034;-66
2022/11/27 08:11:55;;;;;;;13.32;6.28;;;;;;;5.23;95.40;102002.59;5134205;27;20039;-65
2022/11/27 08:14:20;;;;;;;12.70;5.35;;;;;;;5.21;95.78;101999.88;5133966;27;20021;-66
2022/11/27 08:16:46;;;;;;;14.77;6.75;;;;;;;5.24;96.13;102001.78;5133825;27;20099;-65
2022/11/27 08:19:12;;;;;;;13.95;6.68;;;;;;;5.24;95.75;102000.06;5133728;27;20640;-65
2022/11/27 08:21:37;;;;;;;14.88;6.25;;;;;;;5.26;95.72;102008.88;5132534;28;20110;-66
2022/11/27 08:24:03;;;;;;;12.25;5.97;;;;;;;5.26;96.37;102000.13;5133809;27;20079;-66
2022/11/27 08:26:28;;;;;;;13.63;6.63;;;;;;;5.31;96.31;102002.97;5132508;28;20026;-65
2022/11/27 08:28:54;;;;;;;14.40;6.22;;;;;;;5.32;96.49;101996.94;5133770;27;20062;-65
2022/11/27 08:31:21;;;;;;;11.82;6.05;;;;;;;5.34;96.53;101997.88;5134057;27;20051;-65
2022/11/27 08:33:46;;;;;;;15.10;6.28;;;;;;;5.34;96.42;102001.41;5133960;27;20102;-66
2022/11/27 08:36:12;;;;;;;11.65;6.32;;;;;;;5.28;96.77;101988.91;5133603;27;20573;-65
2022/11/27 08:38:38;;;;;;;15.27;7.20;;;;;;;5.36;96.84;102001.50;5133738;27;20028;-65
2022/11/27 08:41:05;;;;;;;15.90;6.15;;;;;;;5.37;96.94;102005.91;5133676;28;20019;-65
2022/11/27 08:43:31;;;;;;;17.52;7.05;;;;;;;5.37;96.71;102001.56;5133664;27;20023;-65
2022/11/27 08:45:57;;;;;;;16.20;6.25;;;;;;;5.41;96.72;101995.66;5133642;27;20501;-65
2022/11/27 08:48:23;;;;;;;16.50;7.63;;;;;;;5.43;97.20;102000.97;5133666;27;20484;-65
2022/11/27 08:50:49;;;;;;;13.57;6.60;;;;;;;5.46;96.95;101990.66;5133646;27;20464;-65
2022/11/27 08:53:15;;;;;;;11.73;6.97;;;;;;;5.50;96.88;101995.22;5133249;28;20514;-65
2022/11/27 08:55:41;;;;;;;14.00;6.43;;;;;;;5.50;96.94;101998.72;5133571;27;20019;-65
2022/11/27 08:58:06;;;;;;;14.82;6.85;;;;;;;5.57;96.65;102004.25;5133502;27;20094;-66
2022/11/27 09:00:33;;;;;;;13.88;6.50;;;;;;;5.59;96.38;102008.78;5133811;27;20368;-65
2022/11/27 09:02:59;;;;;;;11.57;6.32;;;;;;;5.62;96.56;102008.94;5133468;27;20373;-65
2022/11/27 09:05:25;;;;;;;11.45;6.00;;;;;;;5.63;96.56;102008.09;5133521;27;20080;-65
2022/11/27 09:07:50;;;;;;;13.02;6.18;;;;;;;5.68;96.27;102008.31;5133439;27;20110;-65
2022/11/27 09:10:16;;;;;;;14.85;7.25;;;;;;;5.70;96.35;102006.69;5133432;27;20106;-64
2022/11/27 09:12:43;;;;;;;12.50;6.20;;;;;;;5.74;96.02;102008.66;5133599;27;20419;-64
2022/11/27 09:15:12;;;;;;;12.13;6.78;;;;;;;5.74;96.12;102006.03;5133624;27;20026;-65
2022/11/27 09:17:38;;;;;;;12.15;6.50;;;;;;;5.77;96.04;102003.53;5133800;27;20015;-67
2022/11/27 09:20:05;;;;;;;15.60;6.63;;;;;;;5.78;96.16;102007.94;5137451;27;20048;-65
2022/11/27 09:22:32;;;;;;;12.15;6.20;;;;;;;5.77;95.98;101998.28;5137069;27;20529;-65
2022/11/27 09:24:58;;;;;;;13.05;6.72;;;;;;;5.82;96.07;101996.78;5137314;27;20030;-65
2022/11/27 09:27:24;;;;;;;18.20;6.90;;;;;;;5.82;96.06;102002.03;5137007;27;20015;-65
2022/11/27 09:29:49;;;;;;;12.60;6.22;;;;;;;5.85;96.05;101999.56;5136994;27;20058;-65
2022/11/27 09:32:15;;;;;;;13.82;6.90;;;;;;;5.86;96.14;102001.34;5135633;27;20406;-65
2022/11/27 09:34:40;;;;;;;13.55;6.65;;;;;;;5.87;96.29;102002.28;5136948;27;20533;-64
2022/11/27 09:37:06;;;;;;;11.45;6.60;;;;;;;5.90;96.05;102002.41;5136957;27;20034;-64
2022/11/27 09:39:32;;;;;;;15.05;7.20;;;;;;;5.90;96.46;101999.78;5136821;27;20023;-65
2022/11/27 09:42:01;;;;;;;14.95;6.72;;;;;;;5.91;96.66;101998.94;5136738;27;20333;-65
2022/11/27 09:44:44;;;;;;;17.02;6.60;;;;;;;5.93;96.73;101993.00;5136856;27;20019;-65
2022/11/27 09:47:40;;;;;;;13.20;6.40;;;;;;;5.94;97.24;101999.13;5136682;27;20073;-65
2022/11/27 09:50:17;;;;;;;14.60;6.57;;;;;;;5.97;97.24;102005.44;5136821;27;20035;-65
2022/11/27 09:52:49;;;;;;;14.10;6.35;;;;;;;5.99;96.99;101997.63;5136290;27;20184;-65
2022/11/27 09:55:36;;;;;;;14.38;6.80;;;;;;;6.04;97.27;101990.91;5136555;27;20030;-65
2022/11/27 09:58:06;;;;;;;12.27;6.53;;;;;;;6.07;97.02;101987.50;5136626;27;20031;-65
2022/11/27 10:00:32;;;;;;;15.60;6.78;;;;;;;6.08;97.06;101982.34;5136492;27;20171;-65
2022/11/27 10:02:58;;;;;;;13.70;6.60;;;;;;;6.11;97.39;101973.69;5136201;27;20106;-65
2022/11/27 10:05:30;;;;;;;17.33;6.95;;;;;;;6.12;97.45;101965.88;5136382;27;20023;-66
2022/11/27 10:08:22;;;;;;;16.35;7.00;;;;;;;6.17;97.08;101964.41;5136249;27;20160;-65
2022/11/27 10:10:58;;;;;;;12.87;6.90;;;;;;;6.18;97.49;101968.81;5136265;27;20477;-66
2022/11/27 10:13:44;;;;;;;12.00;7.00;;;;;;;6.21;97.77;101954.91;5136128;27;20375;-65
2022/11/27 10:16:32;;;;;;;11.15;6.40;;;;;;;6.24;97.31;101949.81;5136370;27;20030;-65
2022/11/27 10:19:24;;;;;;;18.45;9.05;;;;;;;6.25;97.23;101955.16;5136065;27;20051;-65
2022/11/27 10:21:55;;;;;;;11.82;6.45;;;;;;;6.26;96.81;101948.19;5136061;27;20030;-66
2022/11/27 10:24:35;;;;;;;12.95;6.78;;;;;;;6.27;97.42;101943.00;5135849;27;20031;-66
2022/11/27 10:27:09;;;;;;;14.30;7.30;;;;;;;6.25;97.28;101930.63;5135881;27;20407;-65
2022/11/27 10:29:38;;;;;;;15.10;6.57;;;;;;;6.27;97.20;101931.59;5135707;27;20102;-66
2022/11/27 10:32:13;;;;;;;15.68;7.78;;;;;;;6.27;98.01;101924.63;5135843;27;20026;-65
2022/11/27 10:34:43;;;;;;;14.77;7.00;;;;;;;6.18;97.65;101910.19;5135761;27;20429;-66
2022/11/27 10:37:14;;;;;;;13.10;7.38;;;;;;;6.26;97.45;101930.69;5135691;27;20035;-66
2022/11/27 10:39:47;;;;;;;16.13;7.87;;;;;;;6.28;97.80;101933.38;5135598;27;20110;-67
2022/11/27 10:42:23;;;;;;;15.90;7.70;;;;;;;6.27;98.02;101929.88;5135512;27;20482;-66
2022/11/27 10:45:04;;;;;;;11.02;7.47;;;;;;;6.29;98.14;101916.81;5135597;27;20034;-67
2022/11/27 10:47:29;;;;;;;15.80;7.25;;;;;;;6.31;97.98;101914.28;5135512;27;20039;-66
2022/11/27 10:49:56;;;;;;;15.25;7.28;;;;;;;6.34;98.12;101906.50;5099769;27;20026;-66
2022/11/27 10:52:22;;;;;;;13.35;7.60;;;;;;;6.36;97.56;101907.50;5135055;27;20047;-65
2022/11/27 10:54:59;;;;;;;13.63;8.10;;;;;;;6.39;98.05;101907.63;5135416;27;20042;-69
2022/11/27 10:57:47;;;;;;;13.88;7.60;;;;;;;6.40;97.53;101901.56;5135428;27;20448;-65
2022/11/27 11:00:20;;;;;;;14.25;7.22;;;;;;;6.42;97.55;101892.88;5135027;27;20416;-66
2022/11/27 11:02:46;;;;;;;12.90;7.78;;;;;;;6.45;97.78;101895.66;5135451;27;20023;-66
2022/11/27 11:05:17;;;;;;;15.23;7.40;;;;;;;6.47;96.75;101891.41;5134999;27;20027;-66
2022/11/27 11:07:54;;;;;;;13.65;7.63;;;;;;;6.47;97.65;101880.91;5135058;27;20042;-65
2022/11/27 11:10:36;;;;;;;15.80;7.50;;;;;;;6.49;96.83;101883.56;5135068;27;20038;-66
2022/11/27 11:13:10;;;;;;;14.57;7.10;;;;;;;6.50;96.57;101881.00;5134845;27;20023;-66
2022/11/27 11:15:47;;;;;;;11.63;7.38;;;;;;;6.51;97.37;101876.69;5134911;27;20025;-66
2022/11/27 11:18:33;;;;;;;13.40;7.72;;;;;;;6.55;96.73;101868.06;5134633;27;20074;-65
2022/11/27 11:21:05;;;;;;;14.90;7.63;;;;;;;6.56;96.45;101861.13;5134745;27;20076;-65
2022/11/27 11:23:37;;;;;;;13.55;6.70;;;;;;;6.58;96.76;101856.81;5134962;27;20046;-65
2022/11/27 11:26:28;;;;;;;17.23;8.40;;;;;;;6.58;96.76;101848.94;5134697;27;20061;-64
2022/11/27 11:28:57;;;;;;;14.82;7.60;;;;;;;6.57;96.95;101848.03;5132602;27;20127;-65
2022/11/27 11:31:30;;;;;;;14.68;7.20;;;;;;;6.59;96.99;101848.09;5122012;27;20384;-66
2022/11/27 11:34:02;;;;;;;15.93;7.93;;;;;;;6.61;96.69;101841.19;5122490;27;20028;-64
2022/11/27 11:36:28;;;;;;;15.57;7.93;;;;;;;6.63;97.17;101835.16;5122617;27;20447;-64